Time;durP1;ratioP1;P1;durP2;ratioP2;P2;SDS_P1;SDS_P2;PMS_P1;PMS_P2;Temp;Humidity;BMP_temperature;BMP_pressure;BME280_temperature;BME280_humidity;BME280_pressure;Samples;Min_cycle;Max_cycle;Signal;HPM_P1;HPM_P2
2022/10/22 04:03:24;;;;;;;0.50;0.47;;;13.80;99.90;;;;;;6182053;23;20499;31
2022/10/22 04:05:50;;;;;;;8.77;0.87;;;13.80;99.90;;;;;;4972885;28;21015;-67
2022/10/22 04:08:15;;;;;;;0.40;0.40;;;13.80;99.90;;;;;;4976272;28;20455;-67
2022/10/22 04:10:41;;;;;;;2.60;0.60;;;13.90;99.90;;;;;;4976443;28;20594;-68
2022/10/22 04:13:06;;;;;;;0.60;0.50;;;13.90;99.90;;;;;;4976171;28;20172;-66
2022/10/22 04:15:32;;;;;;;0.50;0.50;;;13.90;99.90;;;;;;4976396;28;20267;-69
2022/10/22 04:17:57;;;;;;;1.63;0.60;;;13.90;99.90;;;;;;4975900;28;20172;-68
2022/10/22 04:20:23;;;;;;;0.40;0.40;;;13.90;99.90;;;;;;4976346;28;20164;-68
2022/10/22 04:22:48;;;;;;;1.73;0.80;;;13.90;99.90;;;;;;4958481;28;20179;-69
2022/10/22 04:25:14;;;;;;;1.67;0.80;;;13.90;99.90;;;;;;4976024;28;20196;-68
2022/10/22 04:27:40;;;;;;;0.50;0.50;;;13.80;99.90;;;;;;4976046;28;20661;-69
2022/10/22 04:30:06;;;;;;;0.93;0.53;;;13.70;99.90;;;;;;4975990;28;20222;-69
2022/10/22 04:32:31;;;;;;;1.23;0.47;;;13.70;99.90;;;;;;4975780;28;20507;-69
2022/10/22 04:34:57;;;;;;;0.50;0.47;;;13.70;99.90;;;;;;4974608;28;20434;-68
2022/10/22 04:37:23;;;;;;;0.43;0.40;;;13.70;99.90;;;;;;4975951;28;20176;-67
2022/10/22 04:39:48;;;;;;;0.60;0.60;;;13.70;99.90;;;;;;4975865;28;20171;-69
2022/10/22 04:42:14;;;;;;;0.50;0.50;;;13.60;99.90;;;;;;4975796;28;20172;-69
2022/10/22 04:44:39;;;;;;;1.13;0.60;;;13.60;99.90;;;;;;4957357;28;20226;-68
2022/10/22 04:47:05;;;;;;;0.70;0.70;;;13.60;99.90;;;;;;4975277;28;20179;-68
2022/10/22 04:49:30;;;;;;;0.53;0.53;;;13.50;99.90;;;;;;4975541;28;20194;-69
2022/10/22 04:51:56;;;;;;;0.70;0.50;;;13.60;99.90;;;;;;4975737;28;20179;-68
2022/10/22 04:54:22;;;;;;;0.50;0.50;;;13.50;99.90;;;;;;4975337;28;20210;-68
2022/10/22 04:56:47;;;;;;;0.40;0.40;;;13.50;99.90;;;;;;4975564;28;20164;-67
2022/10/22 04:59:13;;;;;;;0.50;0.50;;;13.50;99.90;;;;;;4949185;29;20187;-69
2022/10/22 05:01:41;;;;;;;0.60;0.60;;;13.40;99.90;;;;;;4972111;28;20180;-68
2022/10/22 05:04:10;;;;;;;1.13;0.80;;;13.40;99.90;;;;;;4957358;28;20199;-68
2022/10/22 05:06:36;;;;;;;0.70;0.70;;;13.40;99.90;;;;;;4975430;28;20909;-68
2022/10/22 05:09:07;;;;;;;1.00;0.70;;;13.40;99.90;;;;;;4975297;28;20446;-68
2022/10/22 05:11:37;;;;;;;2.40;1.00;;;13.40;99.90;;;;;;4975501;28;20411;-68
2022/10/22 05:14:04;;;;;;;1.20;0.57;;;13.40;99.90;;;;;;4974055;28;20505;-68
2022/10/22 05:16:31;;;;;;;0.50;0.50;;;13.30;99.90;;;;;;4973814;28;20427;-68
2022/10/22 05:18:58;;;;;;;0.43;0.40;;;13.30;99.90;;;;;;4975299;28;20476;-68
2022/10/22 05:21:25;;;;;;;1.03;0.70;;;13.30;99.90;;;;;;4987976;28;20422;-67
2022/10/22 05:23:51;;;;;;;0.83;0.83;;;13.30;99.90;;;;;;4994201;28;20455;-67
2022/10/22 05:26:19;;;;;;;0.57;0.57;;;13.30;99.90;;;;;;4994529;28;20414;-68
2022/10/22 05:28:46;;;;;;;0.70;0.60;;;13.30;99.90;;;;;;4988843;28;20436;-67
2022/10/22 05:31:12;;;;;;;0.73;0.73;;;13.30;99.90;;;;;;4991179;28;20433;-69
2022/10/22 05:33:39;;;;;;;0.63;0.63;;;13.30;99.90;;;;;;4957220;28;20498;-68
2022/10/22 05:36:06;;;;;;;0.70;0.70;;;13.30;99.90;;;;;;4974974;28;20912;-67
2022/10/22 05:38:33;;;;;;;0.40;0.40;;;13.30;99.90;;;;;;4981074;28;20869;-68
2022/10/22 05:41:11;;;;;;;0.50;0.50;;;13.30;99.90;;;;;;4980300;28;20442;-68
2022/10/22 05:43:37;;;;;;;0.60;0.60;;;13.30;99.90;;;;;;4973183;28;20529;-69
2022/10/22 05:46:08;;;;;;;1.17;0.87;;;13.30;99.90;;;;;;4975099;28;20473;-68
2022/10/22 05:48:33;;;;;;;0.43;0.43;;;13.40;99.90;;;;;;4974803;28;20557;-67
2022/10/22 05:51:05;;;;;;;0.73;0.73;;;13.30;99.90;;;;;;4957975;28;20526;-69
2022/10/22 05:53:32;;;;;;;1.83;1.13;;;13.30;99.90;;;;;;4978429;28;20473;-68
2022/10/22 05:56:07;;;;;;;0.70;0.70;;;13.40;99.90;;;;;;4974591;28;20410;-68
2022/10/22 05:58:33;;;;;;;1.23;0.50;;;13.40;99.90;;;;;;4973910;28;20417;-69
2022/10/22 06:01:15;;;;;;;0.60;0.60;;;13.40;99.90;;;;;;4974664;28;20418;-68
2022/10/22 06:03:42;;;;;;;0.73;0.73;;;13.50;99.90;;;;;;4974154;28;20435;-68
2022/10/22 06:06:21;;;;;;;0.70;0.70;;;13.50;99.90;;;;;;4974478;28;20466;-66
2022/10/22 06:08:48;;;;;;;0.70;0.70;;;13.50;99.90;;;;;;4974900;28;20441;-69
2022/10/22 06:11:16;;;;;;;3.23;0.60;;;13.50;99.90;;;;;;4974501;28;20495;-69
2022/10/22 06:13:43;;;;;;;1.57;1.47;;;13.50;99.90;;;;;;4978046;28;20460;-67
2022/10/22 06:16:09;;;;;;;0.70;0.70;;;13.50;99.90;;;;;;4955309;29;20411;-68
2022/10/22 06:18:34;;;;;;;0.67;0.67;;;13.60;99.90;;;;;;4955328;29;20466;-69
2022/10/22 06:21:08;;;;;;;0.57;0.57;;;13.60;99.90;;;;;;4955321;29;20184;-67
2022/10/22 06:23:34;;;;;;;0.97;0.87;;;13.70;99.90;;;;;;4954843;29;20205;-68
2022/10/22 06:26:00;;;;;;;3.10;0.60;;;13.80;99.90;;;;;;4955120;29;20415;-68
2022/10/22 06:28:26;;;;;;;0.60;0.60;;;13.80;99.90;;;;;;4960657;28;20493;-68
2022/10/22 06:30:51;;;;;;;1.43;0.90;;;13.80;99.90;;;;;;4971004;28;20456;-68
2022/10/22 06:33:17;;;;;;;0.53;0.53;;;13.90;99.90;;;;;;4954686;29;20568;-69
2022/10/22 06:35:44;;;;;;;1.33;0.70;;;13.90;99.90;;;;;;4955154;29;20651;-68
2022/10/22 06:38:10;;;;;;;0.70;0.57;;;13.90;99.90;;;;;;4955114;29;20208;-68
2022/10/22 06:40:36;;;;;;;0.60;0.57;;;13.90;99.90;;;;;;4955101;28;20415;-68
2022/10/22 06:43:01;;;;;;;0.60;0.60;;;13.90;99.90;;;;;;4977958;28;20788;-69
2022/10/22 06:45:27;;;;;;;0.70;0.70;;;14.00;99.90;;;;;;4957373;29;20292;-69
2022/10/22 06:47:54;;;;;;;0.90;0.80;;;14.00;99.90;;;;;;4958527;29;20235;-68
2022/10/22 06:50:20;;;;;;;1.60;1.43;;;14.00;99.90;;;;;;4965554;28;20582;-69
2022/10/22 06:52:45;;;;;;;0.90;0.80;;;14.00;99.90;;;;;;4975726;28;20427;-69
2022/10/22 06:55:11;;;;;;;1.53;1.43;;;14.10;99.90;;;;;;4977755;28;20418;-68
2022/10/22 06:57:37;;;;;;;2.30;0.70;;;14.20;99.90;;;;;;4967008;28;20685;-69
2022/10/22 07:00:04;;;;;;;1.20;0.77;;;14.30;99.90;;;;;;4977759;28;20169;-69
2022/10/22 07:02:30;;;;;;;0.90;0.50;;;14.30;99.90;;;;;;4966534;28;20268;-67
2022/10/22 07:04:55;;;;;;;4.43;1.83;;;14.40;99.90;;;;;;4973505;28;20497;-69
2022/10/22 07:07:21;;;;;;;0.53;0.50;;;14.50;99.90;;;;;;4966656;28;20515;-68
2022/10/22 07:09:48;;;;;;;0.73;0.73;;;14.50;99.90;;;;;;4974604;28;20855;-71
2022/10/22 07:12:14;;;;;;;0.93;0.63;;;14.60;99.90;;;;;;4984021;28;20180;-66
2022/10/22 07:14:39;;;;;;;0.70;0.63;;;14.70;99.90;;;;;;4957590;28;20800;-68
2022/10/22 07:17:05;;;;;;;1.50;0.70;;;14.80;99.90;;;;;;4958250;28;20488;-69
2022/10/22 07:19:31;;;;;;;0.40;0.40;;;14.90;99.90;;;;;;4959083;28;20251;-69
2022/10/22 07:21:56;;;;;;;0.50;0.50;;;15.00;99.90;;;;;;4963538;28;20192;-70
2022/10/22 07:24:22;;;;;;;0.70;0.70;;;15.00;99.90;;;;;;4976856;28;20203;-72
2022/10/22 07:26:48;;;;;;;0.70;0.70;;;15.10;99.90;;;;;;4977201;28;20172;-69
2022/10/22 07:29:14;;;;;;;0.90;0.90;;;15.20;99.90;;;;;;4974479;28;20511;-70
2022/10/22 07:31:40;;;;;;;0.60;0.60;;;15.30;99.90;;;;;;4969353;28;20209;-72
2022/10/22 07:34:06;;;;;;;0.57;0.57;;;15.30;99.90;;;;;;4957328;29;20492;-73
2022/10/22 07:36:32;;;;;;;1.07;0.80;;;15.40;99.90;;;;;;4958596;28;20913;-75
2022/10/22 07:38:59;;;;;;;1.27;0.67;;;15.50;99.90;;;;;;4977123;28;20188;-74
2022/10/22 07:41:26;;;;;;;1.20;0.77;;;15.50;99.90;;;;;;4981140;28;20184;-74
2022/10/22 07:43:51;;;;;;;1.10;0.87;;;15.60;99.90;;;;;;4958809;28;20457;-72
2022/10/22 07:46:18;;;;;;;0.70;0.70;;;15.70;99.90;;;;;;4984160;28;20483;-74
2022/10/22 07:48:43;;;;;;;0.50;0.50;;;15.80;99.90;;;;;;4975766;28;20664;-72
2022/10/22 07:51:09;;;;;;;0.50;0.50;;;15.80;99.90;;;;;;4957408;28;20465;-71
2022/10/22 07:53:35;;;;;;;0.70;0.70;;;15.80;99.90;;;;;;4971620;28;20707;-68
2022/10/22 07:56:01;;;;;;;0.47;0.47;;;15.80;99.90;;;;;;4976354;28;20267;-72
2022/10/22 07:58:27;;;;;;;1.00;0.70;;;15.90;99.90;;;;;;4957646;28;20480;-75
2022/10/22 08:00:59;;;;;;;0.60;0.60;;;16.00;99.90;;;;;;4957486;29;20900;-71
2022/10/22 08:03:25;;;;;;;1.00;0.53;;;16.00;99.90;;;;;;4981755;28;20433;-69
2022/10/22 08:05:52;;;;;;;1.47;0.90;;;16.00;99.90;;;;;;4994260;28;20439;-73
2022/10/22 08:08:18;;;;;;;4.63;2.23;;;16.10;99.90;;;;;;4958142;28;20813;-71
2022/10/22 08:10:44;;;;;;;1.13;1.03;;;16.30;99.90;;;;;;4976418;28;20403;-75
2022/10/22 08:13:10;;;;;;;2.53;0.97;;;16.60;99.90;;;;;;4965335;28;20181;-66
2022/10/22 08:15:36;;;;;;;0.60;0.60;;;17.00;99.90;;;;;;4956793;29;20420;-69
2022/10/22 08:18:01;;;;;;;0.57;0.57;;;17.30;99.90;;;;;;4971767;28;20191;-70
2022/10/22 08:20:27;;;;;;;1.23;0.47;;;17.50;99.90;;;;;;4976101;28;20169;-69
2022/10/22 08:22:53;;;;;;;5.57;3.30;;;17.70;99.90;;;;;;4962792;28;20185;-68
2022/10/22 08:25:18;;;;;;;0.77;0.77;;;18.10;99.90;;;;;;4981073;28;20198;-68
2022/10/22 08:27:44;;;;;;;0.67;0.67;;;18.30;99.90;;;;;;4979455;28;20650;-75
2022/10/22 08:30:11;;;;;;;1.17;0.90;;;18.40;99.90;;;;;;4982289;28;20182;-70
2022/10/22 08:32:36;;;;;;;0.50;0.50;;;18.50;99.90;;;;;;4971607;28;20931;-72
2022/10/22 08:35:02;;;;;;;0.77;0.70;;;18.70;99.90;;;;;;4995344;28;20430;-65
2022/10/22 08:37:28;;;;;;;1.33;0.70;;;19.10;99.90;;;;;;4975666;28;20224;-69
2022/10/22 08:39:53;;;;;;;0.87;0.70;;;20.10;99.90;;;;;;4975904;28;20411;-69
2022/10/22 08:42:53;;;;;;;2.23;0.97;;;21.30;99.90;;;;;;4992768;28;20596;-69
2022/10/22 08:45:34;;;;;;;3.20;0.60;;;22.60;99.90;;;;;;4979728;28;20234;-68
2022/10/22 08:48:42;;;;;;;0.73;0.70;;;23.30;99.90;;;;;;4978304;28;20459;-68
2022/10/22 08:51:17;;;;;;;1.20;1.10;;;23.90;99.90;;;;;;4984310;28;20728;-69
2022/10/22 08:54:05;;;;;;;0.40;0.40;;;24.80;99.90;;;;;;4982674;28;20455;-66
2022/10/22 08:56:33;;;;;;;1.30;0.63;;;25.70;99.50;;;;;;4975893;28;20385;-66
2022/10/22 08:59:13;;;;;;;0.70;0.70;;;26.30;99.90;;;;;;4974752;28;20394;-67
2022/10/22 09:01:43;;;;;;;0.40;0.40;;;27.00;98.40;;;;;;4963915;28;20897;-71
2022/10/22 09:04:15;;;;;;;0.90;0.90;;;27.40;96.60;;;;;;4967721;28;20872;-71
2022/10/22 09:06:43;;;;;;;2.33;0.57;;;27.40;94.70;;;;;;4957578;28;20414;-71
2022/10/22 09:09:16;;;;;;;0.60;0.60;;;27.30;94.20;;;;;;4964770;28;20438;-70
2022/10/22 09:11:50;;;;;;;0.70;0.70;;;27.20;95.20;;;;;;4972711;28;20404;-70
2022/10/22 09:14:22;;;;;;;0.40;0.40;;;27.20;95.70;;;;;;4988661;28;20540;-70
2022/10/22 09:17:06;;;;;;;0.60;0.60;;;27.40;95.30;;;;;;4960622;28;20815;-71
2022/10/22 09:19:41;;;;;;;1.07;0.70;;;27.60;94.90;;;;;;4956464;28;20490;-75
2022/10/22 09:22:22;;;;;;;0.67;0.67;;;28.00;94.30;;;;;;4959299;28;20890;-70
2022/10/22 09:24:54;;;;;;;0.60;0.60;;;28.10;93.60;;;;;;4972241;28;20413;-70
2022/10/22 09:27:25;;;;;;;0.87;0.70;;;28.30;93.60;;;;;;4957666;28;20420;-69
2022/10/22 09:29:50;;;;;;;0.70;0.70;;;28.40;92.90;;;;;;4956596;28;20488;-69
2022/10/22 09:32:17;;;;;;;0.90;0.50;;;28.50;93.00;;;;;;4955716;29;20895;-68
2022/10/22 09:34:46;;;;;;;0.77;0.77;;;28.70;92.40;;;;;;4967702;28;20192;-68
2022/10/22 09:37:15;;;;;;;0.93;0.60;;;28.80;92.20;;;;;;4962838;28;20424;-68
2022/10/22 09:39:45;;;;;;;0.87;0.70;;;28.90;91.90;;;;;;4973795;28;20431;-68
2022/10/22 09:42:14;;;;;;;2.17;1.70;;;28.70;91.60;;;;;;4974611;28;20550;-68
2022/10/22 09:44:40;;;;;;;0.70;0.70;;;28.50;92.10;;;;;;4959580;28;20452;-67
2022/10/22 09:47:25;;;;;;;0.70;0.60;;;28.60;92.70;;;;;;4954945;28;20831;-69
2022/10/22 09:50:06;;;;;;;0.60;0.60;;;28.70;91.70;;;;;;4955416;29;20211;-69
2022/10/22 09:52:34;;;;;;;0.70;0.70;;;28.50;91.80;;;;;;4969246;28;20452;-71
2022/10/22 09:55:01;;;;;;;0.90;0.90;;;28.30;91.40;;;;;;4966504;28;20449;-68
2022/10/22 09:57:28;;;;;;;0.60;0.60;;;28.20;91.80;;;;;;4963663;28;20390;-62
2022/10/22 09:59:56;;;;;;;1.60;1.50;;;28.20;92.50;;;;;;4974629;28;20382;-63
2022/10/22 10:02:27;;;;;;;1.00;1.00;;;28.30;92.50;;;;;;4973520;28;20387;-62
2022/10/22 10:04:55;;;;;;;1.07;0.73;;;28.30;92.10;;;;;;4974402;28;20409;-63
2022/10/22 10:07:24;;;;;;;1.30;1.20;;;28.40;92.10;;;;;;4957750;28;21062;-64
2022/10/22 10:09:51;;;;;;;2.50;2.30;;;28.40;92.70;;;;;;4955582;28;20438;-65
2022/10/22 10:12:48;;;;;;;1.17;1.13;;;28.50;92.50;;;;;;4955090;29;20383;-63
2022/10/22 10:15:14;;;;;;;0.63;0.63;;;28.50;91.50;;;;;;4954388;28;20467;-63
2022/10/22 10:18:07;;;;;;;0.93;0.90;;;28.30;92.70;;;;;;4958527;29;20413;-65
2022/10/22 10:20:43;;;;;;;0.80;0.60;;;28.50;92.70;;;;;;4959188;28;20234;-65
2022/10/22 10:23:40;;;;;;;2.10;0.67;;;28.80;92.80;;;;;;4941329;29;20918;-63
2022/10/22 10:26:13;;;;;;;0.50;0.50;;;28.90;92.10;;;;;;4959215;29;20404;-64
2022/10/22 10:28:57;;;;;;;0.60;0.60;;;28.90;91.30;;;;;;4957831;29;20502;-62
2022/10/22 10:31:28;;;;;;;0.50;0.50;;;28.50;91.00;;;;;;4956835;29;20478;-64
2022/10/22 10:34:26;;;;;;;0.60;0.60;;;28.30;91.10;;;;;;4956424;29;20399;-62
2022/10/22 10:37:08;;;;;;;0.97;0.50;;;28.20;91.60;;;;;;4973730;28;20423;-65
2022/10/22 10:39:43;;;;;;;0.80;0.50;;;28.10;91.60;;;;;;4976073;28;20382;-64
2022/10/22 10:42:17;;;;;;;0.80;0.80;;;28.00;92.00;;;;;;4977071;28;20717;-63
2022/10/22 10:44:53;;;;;;;0.73;0.60;;;28.10;92.10;;;;;;4983624;28;20900;-64
2022/10/22 10:47:46;;;;;;;0.80;0.80;;;28.00;92.60;;;;;;4980259;28;20924;-62
2022/10/22 10:50:21;;;;;;;2.93;0.77;;;28.10;93.00;;;;;;4972495;28;20409;-64
2022/10/22 10:53:23;;;;;;;0.73;0.73;;;28.30;92.00;;;;;;4972265;28;20525;-64
2022/10/22 10:56:19;;;;;;;0.80;0.70;;;28.20;93.10;;;;;;4977966;28;20793;-64
2022/10/22 10:58:50;;;;;;;3.70;0.70;;;27.90;92.20;;;;;;4977853;28;20374;-63
2022/10/22 11:01:28;;;;;;;0.60;0.60;;;27.30;92.50;;;;;;4977876;28;20692;-61
2022/10/22 11:04:31;;;;;;;0.60;0.60;;;26.60;93.00;;;;;;4977481;28;20394;-64
2022/10/22 11:07:03;;;;;;;0.87;0.77;;;25.70;94.10;;;;;;4958294;29;20413;-61
2022/10/22 11:09:40;;;;;;;1.07;0.87;;;25.00;94.80;;;;;;4958575;29;20446;-64
2022/10/22 11:12:15;;;;;;;0.90;0.90;;;24.20;95.90;;;;;;4958296;29;20436;-64
2022/10/22 11:15:08;;;;;;;0.70;0.70;;;23.70;96.40;;;;;;4957933;29;20404;-61
2022/10/22 11:17:44;;;;;;;0.70;0.70;;;23.20;97.20;;;;;;4958518;29;20714;-61
2022/10/22 11:21:00;;;;;;;0.90;0.60;;;22.70;97.80;;;;;;4967856;28;20928;-64
2022/10/22 11:23:45;;;;;;;1.13;0.70;;;22.40;98.50;;;;;;4917182;29;20975;-62
2022/10/22 11:26:26;;;;;;;0.67;0.50;;;22.10;99.20;;;;;;4972819;28;20407;-61
2022/10/22 11:28:53;;;;;;;1.33;0.83;;;21.80;98.40;;;;;;4976132;28;20820;-64
2022/10/22 11:31:22;;;;;;;1.50;0.50;;;21.60;98.50;;;;;;4977049;28;20422;-64
2022/10/22 11:33:51;;;;;;;0.60;0.60;;;21.60;99.50;;;;;;4975408;28;20472;-62
2022/10/22 11:36:21;;;;;;;1.30;0.73;;;21.50;99.40;;;;;;4957742;29;20461;-62
2022/10/22 11:38:46;;;;;;;1.13;1.03;;;21.20;99.10;;;;;;4957633;28;20460;-63
2022/10/22 11:41:16;;;;;;;1.10;1.00;;;21.00;99.50;;;;;;4957284;29;20432;-62
2022/10/22 11:44:09;;;;;;;2.27;0.63;;;20.80;99.40;;;;;;4957218;29;20209;-64
2022/10/22 11:46:45;;;;;;;1.37;1.30;;;20.70;99.90;;;;;;4957502;29;20395;-65
2022/10/22 11:49:16;;;;;;;1.47;1.00;;;20.50;99.90;;;;;;4957474;28;20853;-62
2022/10/22 11:51:42;;;;;;;1.10;1.00;;;20.50;99.90;;;;;;4957409;29;20471;-64
2022/10/22 11:54:32;;;;;;;1.50;1.00;;;20.50;99.90;;;;;;4956945;29;20448;-64
2022/10/22 11:57:20;;;;;;;1.47;1.37;;;20.40;99.90;;;;;;4957263;29;20579;-63
2022/10/22 11:59:45;;;;;;;0.73;0.73;;;20.50;99.90;;;;;;4957514;29;20876;-62
2022/10/22 12:02:43;;;;;;;0.50;0.50;;;20.50;99.90;;;;;;4957165;29;20461;-63
2022/10/22 12:05:23;;;;;;;0.60;0.60;;;20.50;99.90;;;;;;4967886;28;20221;-63
2022/10/22 12:07:56;;;;;;;1.13;0.70;;;20.40;99.90;;;;;;4976541;28;20415;-65
2022/10/22 12:10:29;;;;;;;0.93;0.70;;;20.40;99.90;;;;;;4976660;28;20401;-62
2022/10/22 12:13:09;;;;;;;0.77;0.77;;;20.30;99.90;;;;;;4976166;28;20481;-62
2022/10/22 12:15:50;;;;;;;1.37;0.70;;;20.20;99.90;;;;;;4976275;28;20490;-64
2022/10/22 12:18:16;;;;;;;0.73;0.70;;;20.20;99.90;;;;;;4964042;28;20460;-62
2022/10/22 12:20:42;;;;;;;0.83;0.83;;;20.20;99.90;;;;;;4957091;29;20822;-62
2022/10/22 12:23:12;;;;;;;0.63;0.63;;;20.30;99.90;;;;;;4956560;29;20482;-60
2022/10/22 12:25:38;;;;;;;1.10;1.00;;;20.40;99.90;;;;;;4957093;29;20547;-63
2022/10/22 12:28:04;;;;;;;1.03;0.70;;;20.50;99.90;;;;;;4956924;29;20475;-64
2022/10/22 12:30:33;;;;;;;0.90;0.90;;;20.50;99.90;;;;;;4956910;29;20719;-64
2022/10/22 12:33:03;;;;;;;0.80;0.80;;;20.60;99.90;;;;;;4967806;28;20454;-63
2022/10/22 12:35:40;;;;;;;0.60;0.60;;;20.70;99.90;;;;;;4976004;28;20476;-63
2022/10/22 12:38:19;;;;;;;0.73;0.60;;;20.80;99.90;;;;;;4975851;28;20522;-63
2022/10/22 12:40:45;;;;;;;1.93;1.60;;;20.80;99.90;;;;;;4975657;28;20416;-65
2022/10/22 12:43:14;;;;;;;1.20;1.10;;;20.90;99.90;;;;;;4975502;28;20959;-64
2022/10/22 12:45:41;;;;;;;3.73;0.60;;;20.90;99.90;;;;;;4976069;28;20416;-63
2022/10/22 12:48:16;;;;;;;0.60;0.60;;;20.90;99.90;;;;;;4975853;28;20945;-62
2022/10/22 12:50:45;;;;;;;0.57;0.57;;;20.90;99.90;;;;;;4973840;28;20419;-63
2022/10/22 12:53:27;;;;;;;0.67;0.50;;;20.90;99.00;;;;;;4956006;29;20801;-62
2022/10/22 12:55:54;;;;;;;1.03;1.00;;;20.90;99.80;;;;;;4939243;29;20424;-61
2022/10/22 12:58:25;;;;;;;0.70;0.70;;;21.00;99.90;;;;;;4956448;29;20746;-62
2022/10/22 13:00:56;;;;;;;0.50;0.50;;;21.20;99.90;;;;;;4956437;29;20813;-62
2022/10/22 13:03:29;;;;;;;1.93;0.70;;;21.30;99.90;;;;;;4955928;29;20447;-62
2022/10/22 13:05:55;;;;;;;1.60;0.63;;;21.40;99.90;;;;;;4956121;28;20438;-62
2022/10/22 13:08:25;;;;;;;0.63;0.63;;;21.40;99.20;;;;;;4956125;29;20806;-64
2022/10/22 13:10:53;;;;;;;0.60;0.60;;;21.40;99.10;;;;;;4956394;29;20177;-62
2022/10/22 13:13:39;;;;;;;1.07;0.70;;;21.30;98.60;;;;;;4955726;29;20415;-64
2022/10/22 13:16:24;;;;;;;0.80;0.80;;;21.30;98.60;;;;;;4956510;29;20483;-64
2022/10/22 13:18:51;;;;;;;0.97;0.97;;;21.20;98.80;;;;;;4956946;29;20379;-62
2022/10/22 13:21:25;;;;;;;0.80;0.63;;;21.10;98.50;;;;;;4966247;28;20442;-64
2022/10/22 13:24:01;;;;;;;0.50;0.50;;;21.10;98.20;;;;;;4977680;28;20467;-64
2022/10/22 13:26:36;;;;;;;1.30;0.87;;;21.10;98.40;;;;;;4965857;28;20430;-62
2022/10/22 13:29:08;;;;;;;0.60;0.60;;;21.00;98.60;;;;;;4958978;29;20493;-63
2022/10/22 13:31:36;;;;;;;0.70;0.70;;;20.90;98.80;;;;;;4956688;29;20491;-65
2022/10/22 13:34:05;;;;;;;0.80;0.70;;;20.80;98.80;;;;;;4954784;29;20439;-65
2022/10/22 13:36:31;;;;;;;2.50;0.90;;;20.80;98.80;;;;;;4955783;28;20429;-64
2022/10/22 13:38:57;;;;;;;0.40;0.40;;;20.70;98.80;;;;;;4955853;29;20417;-62
2022/10/22 13:41:25;;;;;;;0.60;0.60;;;20.60;98.80;;;;;;4956033;28;20558;-64
2022/10/22 13:43:51;;;;;;;0.60;0.60;;;20.60;98.90;;;;;;4975168;28;20260;-63
2022/10/22 13:46:17;;;;;;;0.60;0.60;;;20.50;99.20;;;;;;4975917;28;20786;-63
2022/10/22 13:48:44;;;;;;;4.50;0.60;;;20.50;99.30;;;;;;4976439;28;20443;-64
2022/10/22 13:51:22;;;;;;;0.60;0.60;;;20.50;99.10;;;;;;4974555;28;20383;-65
2022/10/22 13:53:50;;;;;;;0.80;0.70;;;20.40;98.90;;;;;;4974466;28;20423;-61
2022/10/22 13:56:18;;;;;;;4.10;0.80;;;20.30;98.50;;;;;;4974621;28;20411;-62
2022/10/22 13:58:45;;;;;;;0.50;0.50;;;20.20;98.60;;;;;;4974433;28;20839;-64
2022/10/22 14:01:22;;;;;;;0.67;0.67;;;20.10;98.80;;;;;;4974836;28;20952;-64
2022/10/22 14:03:49;;;;;;;4.10;0.90;;;20.00;99.30;;;;;;4974534;28;20767;-62
2022/10/22 14:06:16;;;;;;;0.90;0.90;;;19.90;99.80;;;;;;4974518;28;20873;-64
2022/10/22 14:08:49;;;;;;;0.60;0.60;;;19.80;99.90;;;;;;4974582;28;20467;-63
2022/10/22 14:11:15;;;;;;;2.30;0.70;;;19.70;99.90;;;;;;4970472;28;20420;-64
2022/10/22 14:13:41;;;;;;;1.23;0.70;;;19.70;99.90;;;;;;4954809;29;20791;-64
2022/10/22 14:16:13;;;;;;;5.00;1.00;;;19.70;99.90;;;;;;4955266;29;20492;-62
2022/10/22 14:18:40;;;;;;;1.17;0.70;;;19.60;99.20;;;;;;4955398;29;20189;-64
2022/10/22 14:21:08;;;;;;;0.50;0.50;;;19.60;98.80;;;;;;4955147;29;20440;-63
2022/10/22 14:23:35;;;;;;;0.80;0.80;;;19.60;98.90;;;;;;4953368;29;20441;-65
2022/10/22 14:26:01;;;;;;;0.97;0.90;;;19.60;98.90;;;;;;4955221;28;20424;-62
2022/10/22 14:28:27;;;;;;;1.30;0.70;;;19.60;99.20;;;;;;4955107;29;20460;-63
2022/10/22 14:30:53;;;;;;;2.10;0.70;;;19.50;99.20;;;;;;4954982;29;20412;-63
2022/10/22 14:33:28;;;;;;;1.70;0.70;;;19.50;99.40;;;;;;4954697;29;20624;-63
2022/10/22 14:35:53;;;;;;;2.23;2.03;;;19.40;99.40;;;;;;4955217;29;20428;-63
2022/10/22 14:38:19;;;;;;;0.80;0.80;;;19.40;99.20;;;;;;4953902;29;20507;-64
2022/10/22 14:40:45;;;;;;;0.70;0.70;;;19.30;99.10;;;;;;4959173;28;20550;-62
2022/10/22 14:43:24;;;;;;;0.90;0.90;;;19.30;99.00;;;;;;4973899;28;20587;-63
2022/10/22 14:45:50;;;;;;;2.73;0.90;;;19.30;99.10;;;;;;4957293;28;20415;-64
2022/10/22 14:48:16;;;;;;;0.90;0.70;;;19.30;99.20;;;;;;4974335;28;20503;-62
2022/10/22 14:50:43;;;;;;;0.80;0.73;;;19.30;99.20;;;;;;4974309;28;20409;-64
2022/10/22 14:53:09;;;;;;;1.30;1.17;;;19.30;99.40;;;;;;4973977;28;20416;-63
2022/10/22 14:55:34;;;;;;;0.60;0.60;;;19.30;99.60;;;;;;4973767;28;20483;-62
2022/10/22 14:58:18;;;;;;;1.17;1.03;;;19.40;99.50;;;;;;4974098;28;20736;-64
2022/10/22 15:00:43;;;;;;;2.27;1.00;;;19.40;99.60;;;;;;4974267;28;20259;-62
2022/10/22 15:03:10;;;;;;;0.63;0.63;;;19.40;99.60;;;;;;4976212;28;20823;-65
2022/10/22 15:05:42;;;;;;;1.27;0.90;;;19.40;99.80;;;;;;4977736;28;20192;-63
2022/10/22 15:08:08;;;;;;;1.80;1.40;;;19.40;99.90;;;;;;4977413;28;20522;-65
2022/10/22 15:10:34;;;;;;;2.10;1.17;;;19.40;99.90;;;;;;4970590;28;20416;-62
2022/10/22 15:13:00;;;;;;;0.70;0.70;;;19.40;99.90;;;;;;4957970;29;20490;-63
2022/10/22 15:15:25;;;;;;;0.80;0.80;;;19.40;99.90;;;;;;4958158;29;20685;-63
2022/10/22 15:17:51;;;;;;;1.37;0.93;;;19.50;99.90;;;;;;4958230;29;20200;-65
2022/10/22 15:20:16;;;;;;;0.97;0.93;;;19.40;99.90;;;;;;4958242;29;20256;-63
2022/10/22 15:22:42;;;;;;;1.43;1.00;;;19.40;99.90;;;;;;4957597;28;20173;-63
2022/10/22 15:25:08;;;;;;;1.60;1.50;;;19.40;99.90;;;;;;4957770;28;20283;-63
2022/10/22 15:27:34;;;;;;;0.83;0.80;;;19.40;99.90;;;;;;4957993;29;20173;-63
2022/10/22 15:30:00;;;;;;;4.10;1.43;;;19.30;99.90;;;;;;4957846;29;20491;-62
2022/10/22 15:32:28;;;;;;;0.90;0.90;;;19.30;99.90;;;;;;4956196;29;20993;-64
2022/10/22 15:34:54;;;;;;;1.23;1.13;;;19.20;99.90;;;;;;4957768;29;20271;-62
2022/10/22 15:37:20;;;;;;;1.10;1.00;;;19.20;99.90;;;;;;4957902;29;20407;-63
2022/10/22 15:39:45;;;;;;;1.37;1.00;;;19.10;99.90;;;;;;4962536;28;20503;-62
2022/10/22 15:42:13;;;;;;;1.30;1.20;;;19.10;99.90;;;;;;4976646;28;20239;-62
2022/10/22 15:44:39;;;;;;;1.83;1.30;;;19.00;99.90;;;;;;4976706;28;20311;-63
2022/10/22 15:47:06;;;;;;;2.57;1.97;;;19.00;99.90;;;;;;4977029;28;20400;-61
2022/10/22 15:49:34;;;;;;;2.60;1.97;;;18.90;99.90;;;;;;4976963;28;20521;-64
2022/10/22 15:52:00;;;;;;;1.40;1.30;;;18.80;99.90;;;;;;4976549;28;20370;-63
2022/10/22 15:54:28;;;;;;;2.93;2.00;;;18.80;99.90;;;;;;4974820;28;20990;-62
2022/10/22 15:56:56;;;;;;;3.13;1.40;;;18.70;99.90;;;;;;4976765;28;20426;-60
2022/10/22 15:59:22;;;;;;;2.60;1.77;;;18.60;99.90;;;;;;4976557;28;20415;-64
2022/10/22 16:01:47;;;;;;;8.93;1.60;;;18.50;99.90;;;;;;4976651;28;20898;-61
2022/10/22 16:04:13;;;;;;;3.20;1.63;;;18.40;99.90;;;;;;4976061;28;20410;-65
2022/10/22 16:06:42;;;;;;;1.70;1.60;;;18.30;99.90;;;;;;4976317;28;20188;-62
2022/10/22 16:09:10;;;;;;;1.93;1.73;;;18.20;99.90;;;;;;4971935;28;20466;-63
2022/10/22 16:11:37;;;;;;;2.20;2.10;;;18.10;99.90;;;;;;4957417;29;20405;-65
2022/10/22 16:14:03;;;;;;;3.30;2.27;;;18.00;99.90;;;;;;4956089;28;20418;-64
2022/10/22 16:16:31;;;;;;;2.43;2.07;;;17.90;99.90;;;;;;4957125;29;20383;-62
2022/10/22 16:18:56;;;;;;;2.00;1.67;;;17.80;99.90;;;;;;4956969;29;20436;-64
2022/10/22 16:21:23;;;;;;;1.90;1.80;;;17.70;99.90;;;;;;4957102;29;20445;-62
2022/10/22 16:23:49;;;;;;;2.20;1.47;;;17.50;99.90;;;;;;4959895;28;20210;-63
2022/10/22 16:26:16;;;;;;;1.87;1.40;;;17.40;99.90;;;;;;4975557;28;20434;-61
2022/10/22 16:28:43;;;;;;;6.50;2.60;;;17.30;99.90;;;;;;4976030;28;20546;-63
2022/10/22 16:31:11;;;;;;;1.77;1.47;;;17.10;99.90;;;;;;4975898;28;20492;-61
2022/10/22 16:33:38;;;;;;;1.90;1.70;;;17.10;99.90;;;;;;4975286;28;20478;-62
2022/10/22 16:36:11;;;;;;;1.10;1.10;;;16.90;99.90;;;;;;4975930;28;20414;-63
2022/10/22 16:38:37;;;;;;;1.63;1.30;;;16.90;99.90;;;;;;4971178;28;20908;-63
2022/10/22 16:41:07;;;;;;;3.43;1.40;;;16.80;99.90;;;;;;4956733;29;20443;-61
2022/10/22 16:43:33;;;;;;;1.53;1.40;;;16.70;99.90;;;;;;4956048;29;20198;-62
2022/10/22 16:45:58;;;;;;;2.03;1.93;;;16.60;99.90;;;;;;4956472;29;20748;-63
2022/10/22 16:48:24;;;;;;;3.40;3.10;;;16.60;99.90;;;;;;4956317;29;20689;-64
2022/10/22 16:50:49;;;;;;;5.20;3.20;;;16.50;99.90;;;;;;4956519;29;20185;-62
2022/10/22 16:53:15;;;;;;;2.73;2.20;;;16.50;99.90;;;;;;4955748;28;20648;-65
2022/10/22 16:55:41;;;;;;;1.87;1.67;;;16.40;99.90;;;;;;4957762;28;20636;-61
2022/10/22 16:58:06;;;;;;;2.17;2.07;;;16.30;99.90;;;;;;4975351;28;20219;-62
2022/10/22 17:00:32;;;;;;;1.53;1.43;;;16.30;99.90;;;;;;4975481;28;20178;-63
2022/10/22 17:02:58;;;;;;;1.90;1.80;;;16.20;99.90;;;;;;4974923;28;20176;-64
2022/10/22 17:05:24;;;;;;;1.53;1.43;;;16.10;99.90;;;;;;4957886;28;20441;-64